sensor_id;sensor_type;location;lat;lon;timestamp;P1;durP1;ratioP1;P2;durP2;ratioP2
1693;SDS011;844;47.058;15.472;2022-10-29T00:01:37;15.00;;;11.87;;
1693;SDS011;844;47.058;15.472;2022-10-29T00:04:07;17.83;;;11.50;;
1693;SDS011;844;47.058;15.472;2022-10-29T00:06:36;13.40;;;10.07;;
1693;SDS011;844;47.058;15.472;2022-10-29T00:09:05;14.53;;;10.87;;
1693;SDS011;844;47.058;15.472;2022-10-29T00:11:36;14.13;;;11.03;;
1693;SDS011;844;47.058;15.472;2022-10-29T00:14:05;13.13;;;9.97;;
1693;SDS011;844;47.058;15.472;2022-10-29T00:16:36;17.00;;;10.77;;
1693;SDS011;844;47.058;15.472;2022-10-29T00:19:05;13.53;;;10.80;;
1693;SDS011;844;47.058;15.472;2022-10-29T00:21:35;14.70;;;11.07;;
1693;SDS011;844;47.058;15.472;2022-10-29T00:24:07;12.10;;;10.87;;
1693;SDS011;844;47.058;15.472;2022-10-29T00:26:38;16.53;;;10.93;;
1693;SDS011;844;47.058;15.472;2022-10-29T00:29:07;11.80;;;10.60;;
1693;SDS011;844;47.058;15.472;2022-10-29T00:31:37;18.83;;;10.17;;
1693;SDS011;844;47.058;15.472;2022-10-29T00:34:06;11.13;;;9.73;;
1693;SDS011;844;47.058;15.472;2022-10-29T00:36:36;11.83;;;9.63;;
1693;SDS011;844;47.058;15.472;2022-10-29T00:39:05;11.80;;;9.30;;
1693;SDS011;844;47.058;15.472;2022-10-29T00:41:34;13.70;;;9.10;;
1693;SDS011;844;47.058;15.472;2022-10-29T00:46:56;14.23;;;9.03;;
1693;SDS011;844;47.058;15.472;2022-10-29T00:49:29;11.60;;;9.47;;
1693;SDS011;844;47.058;15.472;2022-10-29T00:52:00;12.07;;;9.87;;
1693;SDS011;844;47.058;15.472;2022-10-29T00:54:30;10.80;;;9.80;;
1693;SDS011;844;47.058;15.472;2022-10-29T00:57:02;10.80;;;9.37;;
1693;SDS011;844;47.058;15.472;2022-10-29T00:59:36;14.50;;;10.50;;
1693;SDS011;844;47.058;15.472;2022-10-29T01:02:05;12.07;;;10.00;;
1693;SDS011;844;47.058;15.472;2022-10-29T01:04:35;14.83;;;10.03;;
1693;SDS011;844;47.058;15.472;2022-10-29T01:07:05;11.23;;;9.93;;
1693;SDS011;844;47.058;15.472;2022-10-29T01:09:34;11.93;;;10.47;;
1693;SDS011;844;47.058;15.472;2022-10-29T01:12:07;11.50;;;10.30;;
1693;SDS011;844;47.058;15.472;2022-10-29T01:14:56;13.67;;;10.03;;
1693;SDS011;844;47.058;15.472;2022-10-29T01:17:38;14.83;;;11.00;;
1693;SDS011;844;47.058;15.472;2022-10-29T01:23:15;16.23;;;11.97;;
1693;SDS011;844;47.058;15.472;2022-10-29T01:26:05;18.03;;;12.63;;
1693;SDS011;844;47.058;15.472;2022-10-29T01:28:53;17.60;;;12.70;;
1693;SDS011;844;47.058;15.472;2022-10-29T01:31:32;24.90;;;12.97;;
1693;SDS011;844;47.058;15.472;2022-10-29T01:34:04;13.77;;;12.20;;
1693;SDS011;844;47.058;15.472;2022-10-29T01:36:38;12.10;;;11.00;;
1693;SDS011;844;47.058;15.472;2022-10-29T01:39:13;12.53;;;11.33;;
1693;SDS011;844;47.058;15.472;2022-10-29T01:41:48;21.23;;;13.50;;
1693;SDS011;844;47.058;15.472;2022-10-29T01:44:22;14.43;;;12.40;;
1693;SDS011;844;47.058;15.472;2022-10-29T01:46:58;12.50;;;11.47;;
1693;SDS011;844;47.058;15.472;2022-10-29T01:49:31;18.87;;;12.40;;
1693;SDS011;844;47.058;15.472;2022-10-29T01:52:03;14.37;;;12.87;;
1693;SDS011;844;47.058;15.472;2022-10-29T01:54:38;13.63;;;12.20;;
1693;SDS011;844;47.058;15.472;2022-10-29T01:57:28;12.93;;;11.73;;
1693;SDS011;844;47.058;15.472;2022-10-29T02:00:00;14.43;;;13.10;;
1693;SDS011;844;47.058;15.472;2022-10-29T02:02:37;12.87;;;11.60;;
1693;SDS011;844;47.058;15.472;2022-10-29T02:05:17;12.93;;;11.73;;
1693;SDS011;844;47.058;15.472;2022-10-29T02:07:53;14.30;;;12.90;;
1693;SDS011;844;47.058;15.472;2022-10-29T02:10:28;14.00;;;12.67;;
1693;SDS011;844;47.058;15.472;2022-10-29T02:13:00;11.70;;;10.60;;
1693;SDS011;844;47.058;15.472;2022-10-29T02:15:31;14.60;;;13.30;;
1693;SDS011;844;47.058;15.472;2022-10-29T02:18:04;11.90;;;10.80;;
1693;SDS011;844;47.058;15.472;2022-10-29T02:20:34;13.40;;;11.10;;
1693;SDS011;844;47.058;15.472;2022-10-29T02:23:09;12.17;;;11.00;;
1693;SDS011;844;47.058;15.472;2022-10-29T02:25:38;12.77;;;11.67;;
1693;SDS011;844;47.058;15.472;2022-10-29T02:28:08;12.20;;;11.10;;
1693;SDS011;844;47.058;15.472;2022-10-29T02:30:37;12.80;;;11.60;;
1693;SDS011;844;47.058;15.472;2022-10-29T02:33:08;13.43;;;12.23;;
1693;SDS011;844;47.058;15.472;2022-10-29T02:35:37;12.00;;;11.00;;
1693;SDS011;844;47.058;15.472;2022-10-29T02:38:07;19.13;;;11.60;;
1693;SDS011;844;47.058;15.472;2022-10-29T02:40:36;22.30;;;12.93;;
1693;SDS011;844;47.058;15.472;2022-10-29T02:43:05;14.10;;;12.90;;
1693;SDS011;844;47.058;15.472;2022-10-29T02:45:35;11.80;;;10.80;;
1693;SDS011;844;47.058;15.472;2022-10-29T02:48:04;18.10;;;12.87;;
1693;SDS011;844;47.058;15.472;2022-10-29T02:50:35;12.33;;;11.27;;
1693;SDS011;844;47.058;15.472;2022-10-29T02:53:04;13.73;;;11.17;;
1693;SDS011;844;47.058;15.472;2022-10-29T02:55:34;13.17;;;11.97;;
1693;SDS011;844;47.058;15.472;2022-10-29T02:58:03;10.23;;;9.43;;
1693;SDS011;844;47.058;15.472;2022-10-29T03:00:32;14.47;;;11.83;;
1693;SDS011;844;47.058;15.472;2022-10-29T03:03:01;11.83;;;10.83;;
1693;SDS011;844;47.058;15.472;2022-10-29T03:05:31;11.60;;;10.63;;
1693;SDS011;844;47.058;15.472;2022-10-29T03:08:01;12.40;;;11.30;;
1693;SDS011;844;47.058;15.472;2022-10-29T03:10:31;17.23;;;9.67;;
1693;SDS011;844;47.058;15.472;2022-10-29T03:13:01;11.50;;;10.50;;
1693;SDS011;844;47.058;15.472;2022-10-29T03:15:30;9.87;;;9.07;;
1693;SDS011;844;47.058;15.472;2022-10-29T03:17:59;11.13;;;10.23;;
1693;SDS011;844;47.058;15.472;2022-10-29T03:20:28;10.97;;;10.07;;
1693;SDS011;844;47.058;15.472;2022-10-29T03:22:58;10.73;;;10.03;;
1693;SDS011;844;47.058;15.472;2022-10-29T03:25:29;10.27;;;9.47;;
1693;SDS011;844;47.058;15.472;2022-10-29T03:27:58;10.20;;;9.40;;
1693;SDS011;844;47.058;15.472;2022-10-29T03:30:28;10.90;;;10.00;;
1693;SDS011;844;47.058;15.472;2022-10-29T03:32:57;8.63;;;8.03;;
1693;SDS011;844;47.058;15.472;2022-10-29T03:35:28;9.10;;;8.40;;
1693;SDS011;844;47.058;15.472;2022-10-29T03:37:57;10.60;;;9.70;;
1693;SDS011;844;47.058;15.472;2022-10-29T03:40:26;11.80;;;8.87;;
1693;SDS011;844;47.058;15.472;2022-10-29T03:42:57;9.53;;;8.80;;
1693;SDS011;844;47.058;15.472;2022-10-29T03:45:27;9.33;;;8.43;;
1693;SDS011;844;47.058;15.472;2022-10-29T03:47:56;10.43;;;9.63;;
1693;SDS011;844;47.058;15.472;2022-10-29T03:50:26;9.73;;;8.70;;
1693;SDS011;844;47.058;15.472;2022-10-29T03:52:55;10.50;;;9.80;;
1693;SDS011;844;47.058;15.472;2022-10-29T03:55:25;15.90;;;10.10;;
1693;SDS011;844;47.058;15.472;2022-10-29T03:57:57;11.63;;;9.80;;
1693;SDS011;844;47.058;15.472;2022-10-29T04:00:26;9.87;;;9.07;;
1693;SDS011;844;47.058;15.472;2022-10-29T04:02:55;8.60;;;7.90;;
1693;SDS011;844;47.058;15.472;2022-10-29T04:05:25;9.80;;;9.00;;
1693;SDS011;844;47.058;15.472;2022-10-29T04:07:55;9.90;;;9.03;;
1693;SDS011;844;47.058;15.472;2022-10-29T04:10:24;9.83;;;9.03;;
1693;SDS011;844;47.058;15.472;2022-10-29T04:12:54;10.97;;;10.07;;
1693;SDS011;844;47.058;15.472;2022-10-29T04:15:25;11.27;;;10.37;;
1693;SDS011;844;47.058;15.472;2022-10-29T04:17:54;10.77;;;9.87;;
1693;SDS011;844;47.058;15.472;2022-10-29T04:20:24;11.23;;;10.23;;
1693;SDS011;844;47.058;15.472;2022-10-29T04:23:14;10.23;;;9.53;;
1693;SDS011;844;47.058;15.472;2022-10-29T04:26:03;10.47;;;9.63;;
1693;SDS011;844;47.058;15.472;2022-10-29T04:28:53;12.40;;;10.47;;
1693;SDS011;844;47.058;15.472;2022-10-29T04:31:24;9.60;;;8.80;;
1693;SDS011;844;47.058;15.472;2022-10-29T04:33:53;11.30;;;9.00;;
1693;SDS011;844;47.058;15.472;2022-10-29T04:36:23;9.77;;;8.73;;
1693;SDS011;844;47.058;15.472;2022-10-29T04:38:52;9.40;;;8.50;;
1693;SDS011;844;47.058;15.472;2022-10-29T04:41:21;11.67;;;9.60;;
1693;SDS011;844;47.058;15.472;2022-10-29T04:43:50;10.73;;;9.83;;
1693;SDS011;844;47.058;15.472;2022-10-29T04:46:20;10.37;;;9.47;;
1693;SDS011;844;47.058;15.472;2022-10-29T04:48:51;10.97;;;10.07;;
1693;SDS011;844;47.058;15.472;2022-10-29T04:51:21;11.40;;;10.50;;
1693;SDS011;844;47.058;15.472;2022-10-29T04:53:51;12.73;;;10.93;;
1693;SDS011;844;47.058;15.472;2022-10-29T04:56:21;11.27;;;10.23;;
1693;SDS011;844;47.058;15.472;2022-10-29T04:58:50;10.47;;;9.57;;
1693;SDS011;844;47.058;15.472;2022-10-29T05:01:20;10.20;;;9.50;;
1693;SDS011;844;47.058;15.472;2022-10-29T05:03:49;11.27;;;10.37;;
1693;SDS011;844;47.058;15.472;2022-10-29T05:06:25;12.20;;;11.20;;
1693;SDS011;844;47.058;15.472;2022-10-29T05:08:55;12.00;;;10.93;;
1693;SDS011;844;47.058;15.472;2022-10-29T05:11:24;10.87;;;9.93;;
1693;SDS011;844;47.058;15.472;2022-10-29T05:13:53;19.73;;;10.67;;
1693;SDS011;844;47.058;15.472;2022-10-29T05:16:23;10.50;;;9.60;;
1693;SDS011;844;47.058;15.472;2022-10-29T05:18:53;14.17;;;9.50;;
1693;SDS011;844;47.058;15.472;2022-10-29T05:21:23;9.80;;;8.80;;
1693;SDS011;844;47.058;15.472;2022-10-29T05:23:52;9.97;;;9.00;;
1693;SDS011;844;47.058;15.472;2022-10-29T05:26:21;16.47;;;9.03;;
1693;SDS011;844;47.058;15.472;2022-10-29T05:28:51;9.60;;;8.70;;
1693;SDS011;844;47.058;15.472;2022-10-29T05:31:20;8.70;;;7.93;;
1693;SDS011;844;47.058;15.472;2022-10-29T05:33:53;8.97;;;8.27;;
1693;SDS011;844;47.058;15.472;2022-10-29T05:36:22;8.70;;;7.80;;
1693;SDS011;844;47.058;15.472;2022-10-29T05:38:52;10.20;;;9.30;;
1693;SDS011;844;47.058;15.472;2022-10-29T05:41:21;9.00;;;8.20;;
1693;SDS011;844;47.058;15.472;2022-10-29T05:43:50;8.20;;;7.60;;
1693;SDS011;844;47.058;15.472;2022-10-29T05:46:21;10.57;;;9.67;;
1693;SDS011;844;47.058;15.472;2022-10-29T05:48:50;11.43;;;10.43;;
1693;SDS011;844;47.058;15.472;2022-10-29T05:51:21;10.47;;;9.37;;
1693;SDS011;844;47.058;15.472;2022-10-29T05:53:50;12.80;;;11.60;;
1693;SDS011;844;47.058;15.472;2022-10-29T05:56:19;11.33;;;10.33;;
1693;SDS011;844;47.058;15.472;2022-10-29T05:58:49;10.73;;;9.77;;
1693;SDS011;844;47.058;15.472;2022-10-29T06:01:18;9.97;;;9.07;;
1693;SDS011;844;47.058;15.472;2022-10-29T06:03:48;9.03;;;8.33;;
1693;SDS011;844;47.058;15.472;2022-10-29T06:06:23;9.40;;;8.60;;
1693;SDS011;844;47.058;15.472;2022-10-29T06:08:53;9.70;;;8.90;;
1693;SDS011;844;47.058;15.472;2022-10-29T06:11:22;9.47;;;8.67;;
1693;SDS011;844;47.058;15.472;2022-10-29T06:13:53;14.17;;;10.20;;
1693;SDS011;844;47.058;15.472;2022-10-29T06:16:22;15.57;;;10.00;;
1693;SDS011;844;47.058;15.472;2022-10-29T06:18:52;12.90;;;11.90;;
1693;SDS011;844;47.058;15.472;2022-10-29T06:21:23;16.23;;;13.37;;
1693;SDS011;844;47.058;15.472;2022-10-29T06:23:52;11.60;;;10.17;;
1693;SDS011;844;47.058;15.472;2022-10-29T06:26:24;11.77;;;10.80;;
1693;SDS011;844;47.058;15.472;2022-10-29T06:28:54;25.63;;;11.77;;
1693;SDS011;844;47.058;15.472;2022-10-29T06:31:23;11.07;;;10.17;;
1693;SDS011;844;47.058;15.472;2022-10-29T06:33:53;10.20;;;9.40;;
1693;SDS011;844;47.058;15.472;2022-10-29T06:36:24;10.67;;;9.80;;
1693;SDS011;844;47.058;15.472;2022-10-29T06:38:53;10.53;;;9.70;;
1693;SDS011;844;47.058;15.472;2022-10-29T06:41:23;12.03;;;10.93;;
1693;SDS011;844;47.058;15.472;2022-10-29T06:43:53;11.70;;;10.70;;
1693;SDS011;844;47.058;15.472;2022-10-29T06:46:22;20.97;;;11.70;;
1693;SDS011;844;47.058;15.472;2022-10-29T06:48:52;11.60;;;10.57;;
1693;SDS011;844;47.058;15.472;2022-10-29T06:51:21;10.67;;;9.77;;
1693;SDS011;844;47.058;15.472;2022-10-29T06:53:52;11.67;;;10.57;;
1693;SDS011;844;47.058;15.472;2022-10-29T06:56:21;10.50;;;9.60;;
1693;SDS011;844;47.058;15.472;2022-10-29T06:58:51;10.57;;;9.57;;
1693;SDS011;844;47.058;15.472;2022-10-29T07:01:20;10.87;;;10.07;;
1693;SDS011;844;47.058;15.472;2022-10-29T07:03:53;10.53;;;9.73;;
1693;SDS011;844;47.058;15.472;2022-10-29T07:06:24;9.30;;;8.50;;
1693;SDS011;844;47.058;15.472;2022-10-29T07:08:54;9.27;;;8.50;;
1693;SDS011;844;47.058;15.472;2022-10-29T07:11:24;11.90;;;11.00;;
1693;SDS011;844;47.058;15.472;2022-10-29T07:13:53;11.97;;;9.73;;
1693;SDS011;844;47.058;15.472;2022-10-29T07:16:22;11.00;;;10.00;;
1693;SDS011;844;47.058;15.472;2022-10-29T07:18:51;9.50;;;8.80;;
1693;SDS011;844;47.058;15.472;2022-10-29T07:21:22;9.27;;;8.57;;
1693;SDS011;844;47.058;15.472;2022-10-29T07:23:53;30.87;;;12.43;;
1693;SDS011;844;47.058;15.472;2022-10-29T07:26:23;11.23;;;10.13;;
1693;SDS011;844;47.058;15.472;2022-10-29T07:28:53;11.13;;;10.20;;
1693;SDS011;844;47.058;15.472;2022-10-29T07:31:24;11.30;;;10.40;;
1693;SDS011;844;47.058;15.472;2022-10-29T07:33:53;11.07;;;10.17;;
1693;SDS011;844;47.058;15.472;2022-10-29T07:36:25;11.57;;;10.57;;
1693;SDS011;844;47.058;15.472;2022-10-29T07:38:54;17.70;;;13.20;;
1693;SDS011;844;47.058;15.472;2022-10-29T07:41:23;11.70;;;10.60;;
1693;SDS011;844;47.058;15.472;2022-10-29T07:43:53;13.50;;;10.70;;
1693;SDS011;844;47.058;15.472;2022-10-29T07:46:22;11.30;;;10.20;;
1693;SDS011;844;47.058;15.472;2022-10-29T07:48:52;11.67;;;10.60;;
1693;SDS011;844;47.058;15.472;2022-10-29T07:51:21;10.27;;;9.47;;
1693;SDS011;844;47.058;15.472;2022-10-29T07:53:52;10.73;;;9.87;;
1693;SDS011;844;47.058;15.472;2022-10-29T07:56:23;15.80;;;9.60;;
1693;SDS011;844;47.058;15.472;2022-10-29T07:58:52;10.87;;;9.93;;
1693;SDS011;844;47.058;15.472;2022-10-29T08:01:22;10.83;;;9.97;;
1693;SDS011;844;47.058;15.472;2022-10-29T08:03:51;10.50;;;9.60;;
1693;SDS011;844;47.058;15.472;2022-10-29T08:06:21;12.43;;;11.33;;
1693;SDS011;844;47.058;15.472;2022-10-29T08:08:50;11.90;;;10.80;;
1693;SDS011;844;47.058;15.472;2022-10-29T08:11:24;10.80;;;9.80;;
1693;SDS011;844;47.058;15.472;2022-10-29T08:13:56;11.27;;;10.37;;
1693;SDS011;844;47.058;15.472;2022-10-29T08:16:25;11.53;;;10.70;;
1693;SDS011;844;47.058;15.472;2022-10-29T08:18:55;10.63;;;9.63;;
1693;SDS011;844;47.058;15.472;2022-10-29T08:21:25;11.50;;;10.50;;
1693;SDS011;844;47.058;15.472;2022-10-29T08:23:55;13.73;;;12.63;;
1693;SDS011;844;47.058;15.472;2022-10-29T08:26:24;12.33;;;11.13;;
1693;SDS011;844;47.058;15.472;2022-10-29T08:28:54;11.37;;;10.33;;
1693;SDS011;844;47.058;15.472;2022-10-29T08:31:24;12.07;;;10.90;;
1693;SDS011;844;47.058;15.472;2022-10-29T08:33:53;12.77;;;11.67;;
1693;SDS011;844;47.058;15.472;2022-10-29T08:36:23;11.87;;;10.87;;
1693;SDS011;844;47.058;15.472;2022-10-29T08:38:52;10.80;;;9.90;;
1693;SDS011;844;47.058;15.472;2022-10-29T08:41:37;11.83;;;10.87;;
1693;SDS011;844;47.058;15.472;2022-10-29T08:44:24;12.03;;;10.80;;
1693;SDS011;844;47.058;15.472;2022-10-29T08:47:03;12.37;;;11.37;;
1693;SDS011;844;47.058;15.472;2022-10-29T08:49:36;12.20;;;11.20;;
1693;SDS011;844;47.058;15.472;2022-10-29T08:52:09;14.23;;;12.90;;
1693;SDS011;844;47.058;15.472;2022-10-29T08:54:46;13.20;;;12.13;;
1693;SDS011;844;47.058;15.472;2022-10-29T08:57:20;12.17;;;11.17;;
1693;SDS011;844;47.058;15.472;2022-10-29T09:00:03;11.70;;;10.70;;
1693;SDS011;844;47.058;15.472;2022-10-29T09:02:34;11.83;;;10.83;;
1693;SDS011;844;47.058;15.472;2022-10-29T09:05:13;14.57;;;13.30;;
1693;SDS011;844;47.058;15.472;2022-10-29T09:08:25;14.63;;;13.37;;
1693;SDS011;844;47.058;15.472;2022-10-29T09:11:09;14.50;;;13.20;;
1693;SDS011;844;47.058;15.472;2022-10-29T09:17:22;14.10;;;12.80;;
1693;SDS011;844;47.058;15.472;2022-10-29T09:20:06;15.60;;;13.90;;
1693;SDS011;844;47.058;15.472;2022-10-29T09:23:05;16.07;;;13.87;;
1693;SDS011;844;47.058;15.472;2022-10-29T09:25:43;14.87;;;13.47;;
1693;SDS011;844;47.058;15.472;2022-10-29T09:28:21;14.70;;;13.40;;
1693;SDS011;844;47.058;15.472;2022-10-29T09:30:57;14.30;;;13.10;;
1693;SDS011;844;47.058;15.472;2022-10-29T09:33:37;14.10;;;11.43;;
1693;SDS011;844;47.058;15.472;2022-10-29T09:36:11;12.80;;;11.80;;
1693;SDS011;844;47.058;15.472;2022-10-29T09:38:46;13.53;;;12.40;;
1693;SDS011;844;47.058;15.472;2022-10-29T09:41:23;12.63;;;11.60;;
1693;SDS011;844;47.058;15.472;2022-10-29T09:44:02;11.87;;;10.97;;
1693;SDS011;844;47.058;15.472;2022-10-29T09:46:46;11.23;;;10.40;;
1693;SDS011;844;47.058;15.472;2022-10-29T09:49:27;11.40;;;10.47;;
1693;SDS011;844;47.058;15.472;2022-10-29T09:52:05;11.53;;;10.57;;
1693;SDS011;844;47.058;15.472;2022-10-29T09:54:52;9.73;;;8.80;;
1693;SDS011;844;47.058;15.472;2022-10-29T09:57:26;9.47;;;8.67;;
1693;SDS011;844;47.058;15.472;2022-10-29T10:00:03;9.20;;;8.40;;
1693;SDS011;844;47.058;15.472;2022-10-29T10:02:56;10.13;;;9.30;;
1693;SDS011;844;47.058;15.472;2022-10-29T10:05:33;8.67;;;7.97;;
1693;SDS011;844;47.058;15.472;2022-10-29T10:08:06;9.43;;;8.63;;
1693;SDS011;844;47.058;15.472;2022-10-29T10:10:38;10.03;;;8.40;;
1693;SDS011;844;47.058;15.472;2022-10-29T10:13:28;9.80;;;7.90;;
1693;SDS011;844;47.058;15.472;2022-10-29T10:16:22;8.47;;;7.60;;
1693;SDS011;844;47.058;15.472;2022-10-29T10:18:53;7.87;;;7.17;;
1693;SDS011;844;47.058;15.472;2022-10-29T10:21:25;9.07;;;7.87;;
1693;SDS011;844;47.058;15.472;2022-10-29T10:23:55;8.43;;;7.57;;
1693;SDS011;844;47.058;15.472;2022-10-29T10:26:35;10.20;;;8.03;;
1693;SDS011;844;47.058;15.472;2022-10-29T10:29:10;8.70;;;7.90;;
1693;SDS011;844;47.058;15.472;2022-10-29T10:31:45;8.87;;;7.33;;
1693;SDS011;844;47.058;15.472;2022-10-29T10:34:16;8.23;;;7.33;;
1693;SDS011;844;47.058;15.472;2022-10-29T10:36:49;9.20;;;7.13;;
1693;SDS011;844;47.058;15.472;2022-10-29T10:39:25;9.07;;;6.33;;
1693;SDS011;844;47.058;15.472;2022-10-29T10:41:57;7.23;;;5.90;;
1693;SDS011;844;47.058;15.472;2022-10-29T10:44:28;6.53;;;6.03;;
1693;SDS011;844;47.058;15.472;2022-10-29T10:46:58;6.40;;;5.80;;
1693;SDS011;844;47.058;15.472;2022-10-29T10:49:33;9.93;;;6.30;;
1693;SDS011;844;47.058;15.472;2022-10-29T10:52:16;7.50;;;5.83;;
1693;SDS011;844;47.058;15.472;2022-10-29T10:54:53;7.13;;;5.87;;
1693;SDS011;844;47.058;15.472;2022-10-29T10:57:26;6.13;;;5.53;;
1693;SDS011;844;47.058;15.472;2022-10-29T11:00:05;6.53;;;5.93;;
1693;SDS011;844;47.058;15.472;2022-10-29T11:02:38;6.33;;;5.73;;
1693;SDS011;844;47.058;15.472;2022-10-29T11:05:15;8.63;;;6.20;;
1693;SDS011;844;47.058;15.472;2022-10-29T11:07:51;6.77;;;5.97;;
1693;SDS011;844;47.058;15.472;2022-10-29T11:10:26;6.47;;;5.87;;
1693;SDS011;844;47.058;15.472;2022-10-29T11:13:01;7.23;;;6.53;;
1693;SDS011;844;47.058;15.472;2022-10-29T11:15:36;5.60;;;5.00;;
1693;SDS011;844;47.058;15.472;2022-10-29T11:18:11;7.63;;;5.73;;
1693;SDS011;844;47.058;15.472;2022-10-29T11:20:49;8.00;;;5.87;;
1693;SDS011;844;47.058;15.472;2022-10-29T11:23:30;5.40;;;4.77;;
1693;SDS011;844;47.058;15.472;2022-10-29T11:26:25;6.10;;;5.10;;
1693;SDS011;844;47.058;15.472;2022-10-29T11:28:58;6.13;;;5.63;;
1693;SDS011;844;47.058;15.472;2022-10-29T11:31:31;6.20;;;5.70;;
1693;SDS011;844;47.058;15.472;2022-10-29T11:34:09;5.80;;;5.30;;
1693;SDS011;844;47.058;15.472;2022-10-29T11:36:42;7.87;;;7.00;;
1693;SDS011;844;47.058;15.472;2022-10-29T11:39:17;11.20;;;7.17;;
1693;SDS011;844;47.058;15.472;2022-10-29T11:41:49;9.50;;;6.57;;
1693;SDS011;844;47.058;15.472;2022-10-29T11:44:25;4.60;;;4.20;;
1693;SDS011;844;47.058;15.472;2022-10-29T11:47:09;4.87;;;4.30;;
1693;SDS011;844;47.058;15.472;2022-10-29T11:49:50;5.30;;;4.80;;
1693;SDS011;844;47.058;15.472;2022-10-29T11:52:28;5.37;;;4.97;;
1693;SDS011;844;47.058;15.472;2022-10-29T11:55:06;5.23;;;4.73;;
1693;SDS011;844;47.058;15.472;2022-10-29T11:57:47;4.93;;;4.37;;
1693;SDS011;844;47.058;15.472;2022-10-29T12:00:21;7.00;;;5.20;;
1693;SDS011;844;47.058;15.472;2022-10-29T12:02:56;7.27;;;4.37;;
1693;SDS011;844;47.058;15.472;2022-10-29T12:05:45;5.63;;;4.93;;
1693;SDS011;844;47.058;15.472;2022-10-29T12:08:25;8.53;;;4.97;;
1693;SDS011;844;47.058;15.472;2022-10-29T12:11:17;5.57;;;5.03;;
1693;SDS011;844;47.058;15.472;2022-10-29T12:13:55;9.10;;;5.63;;
1693;SDS011;844;47.058;15.472;2022-10-29T12:16:31;5.50;;;5.00;;
1693;SDS011;844;47.058;15.472;2022-10-29T12:19:06;6.57;;;5.43;;
1693;SDS011;844;47.058;15.472;2022-10-29T12:21:42;5.73;;;5.23;;
1693;SDS011;844;47.058;15.472;2022-10-29T12:24:18;7.67;;;5.30;;
1693;SDS011;844;47.058;15.472;2022-10-29T12:27:03;6.00;;;5.40;;
1693;SDS011;844;47.058;15.472;2022-10-29T12:29:37;5.93;;;5.33;;
1693;SDS011;844;47.058;15.472;2022-10-29T12:32:14;7.53;;;5.40;;
1693;SDS011;844;47.058;15.472;2022-10-29T12:34:49;5.57;;;4.93;;
1693;SDS011;844;47.058;15.472;2022-10-29T12:37:23;10.77;;;5.07;;
1693;SDS011;844;47.058;15.472;2022-10-29T12:39:59;6.40;;;5.73;;
1693;SDS011;844;47.058;15.472;2022-10-29T12:42:31;6.17;;;5.60;;
1693;SDS011;844;47.058;15.472;2022-10-29T12:45:05;5.20;;;4.47;;
1693;SDS011;844;47.058;15.472;2022-10-29T12:47:44;7.00;;;4.77;;
1693;SDS011;844;47.058;15.472;2022-10-29T12:50:22;7.27;;;5.30;;
1693;SDS011;844;47.058;15.472;2022-10-29T12:53:02;4.53;;;4.13;;
1693;SDS011;844;47.058;15.472;2022-10-29T12:55:37;9.47;;;6.00;;
1693;SDS011;844;47.058;15.472;2022-10-29T13:04:33;5.70;;;4.70;;
1693;SDS011;844;47.058;15.472;2022-10-29T13:07:03;6.37;;;5.40;;
1693;SDS011;844;47.058;15.472;2022-10-29T13:10:02;6.07;;;4.43;;
1693;SDS011;844;47.058;15.472;2022-10-29T13:13:17;6.87;;;5.57;;
1693;SDS011;844;47.058;15.472;2022-10-29T13:15:58;4.97;;;4.57;;
1693;SDS011;844;47.058;15.472;2022-10-29T13:18:45;6.93;;;6.30;;
1693;SDS011;844;47.058;15.472;2022-10-29T13:24:25;16.63;;;6.43;;
1693;SDS011;844;47.058;15.472;2022-10-29T13:26:57;6.47;;;5.83;;
1693;SDS011;844;47.058;15.472;2022-10-29T13:29:47;5.53;;;4.87;;
1693;SDS011;844;47.058;15.472;2022-10-29T13:32:32;5.27;;;4.70;;
1693;SDS011;844;47.058;15.472;2022-10-29T13:35:03;5.23;;;4.80;;
1693;SDS011;844;47.058;15.472;2022-10-29T13:43:23;6.90;;;4.70;;
1693;SDS011;844;47.058;15.472;2022-10-29T13:45:59;6.23;;;5.63;;
1693;SDS011;844;47.058;15.472;2022-10-29T13:48:35;5.13;;;4.70;;
1693;SDS011;844;47.058;15.472;2022-10-29T13:51:06;5.73;;;4.97;;
1693;SDS011;844;47.058;15.472;2022-10-29T13:53:41;6.97;;;5.63;;
1693;SDS011;844;47.058;15.472;2022-10-29T13:56:16;8.00;;;6.13;;
1693;SDS011;844;47.058;15.472;2022-10-29T13:58:47;9.60;;;5.10;;
1693;SDS011;844;47.058;15.472;2022-10-29T14:01:18;10.13;;;5.67;;
1693;SDS011;844;47.058;15.472;2022-10-29T14:03:57;8.70;;;5.40;;
1693;SDS011;844;47.058;15.472;2022-10-29T14:06:32;5.60;;;5.10;;
1693;SDS011;844;47.058;15.472;2022-10-29T14:09:07;5.90;;;5.33;;
1693;SDS011;844;47.058;15.472;2022-10-29T14:11:42;6.87;;;4.80;;
1693;SDS011;844;47.058;15.472;2022-10-29T14:14:19;7.00;;;4.67;;
1693;SDS011;844;47.058;15.472;2022-10-29T14:17:10;5.30;;;4.80;;
1693;SDS011;844;47.058;15.472;2022-10-29T14:19:45;8.00;;;5.63;;
1693;SDS011;844;47.058;15.472;2022-10-29T14:22:20;6.60;;;5.90;;
1693;SDS011;844;47.058;15.472;2022-10-29T14:24:56;5.93;;;5.37;;
1693;SDS011;844;47.058;15.472;2022-10-29T14:27:25;7.80;;;5.80;;
1693;SDS011;844;47.058;15.472;2022-10-29T14:30:10;5.70;;;4.90;;
1693;SDS011;844;47.058;15.472;2022-10-29T14:32:40;5.33;;;4.90;;
1693;SDS011;844;47.058;15.472;2022-10-29T14:35:16;5.90;;;5.30;;
1693;SDS011;844;47.058;15.472;2022-10-29T14:37:45;5.90;;;4.67;;
1693;SDS011;844;47.058;15.472;2022-10-29T14:40:18;6.80;;;5.90;;
1693;SDS011;844;47.058;15.472;2022-10-29T14:42:49;5.60;;;4.93;;
1693;SDS011;844;47.058;15.472;2022-10-29T14:45:22;5.70;;;5.20;;
1693;SDS011;844;47.058;15.472;2022-10-29T14:47:55;6.43;;;5.67;;
1693;SDS011;844;47.058;15.472;2022-10-29T14:50:27;6.03;;;5.00;;
1693;SDS011;844;47.058;15.472;2022-10-29T14:52:57;8.00;;;5.10;;
1693;SDS011;844;47.058;15.472;2022-10-29T14:55:29;9.17;;;6.13;;
1693;SDS011;844;47.058;15.472;2022-10-29T14:58:02;7.90;;;6.50;;
1693;SDS011;844;47.058;15.472;2022-10-29T15:00:34;7.83;;;6.00;;
1693;SDS011;844;47.058;15.472;2022-10-29T15:03:13;10.03;;;5.80;;
1693;SDS011;844;47.058;15.472;2022-10-29T15:05:49;8.87;;;6.00;;
1693;SDS011;844;47.058;15.472;2022-10-29T15:08:23;6.27;;;5.70;;
1693;SDS011;844;47.058;15.472;2022-10-29T15:11:38;8.67;;;6.07;;
1693;SDS011;844;47.058;15.472;2022-10-29T15:14:47;5.77;;;5.17;;
1693;SDS011;844;47.058;15.472;2022-10-29T15:17:38;6.73;;;6.13;;
1693;SDS011;844;47.058;15.472;2022-10-29T15:23:24;5.67;;;5.10;;
1693;SDS011;844;47.058;15.472;2022-10-29T15:27:08;8.73;;;5.50;;
1693;SDS011;844;47.058;15.472;2022-10-29T15:29:58;5.33;;;4.83;;
1693;SDS011;844;47.058;15.472;2022-10-29T15:32:28;6.87;;;5.40;;
1693;SDS011;844;47.058;15.472;2022-10-29T15:34:58;8.00;;;5.00;;
1693;SDS011;844;47.058;15.472;2022-10-29T15:37:39;5.73;;;5.23;;
1693;SDS011;844;47.058;15.472;2022-10-29T15:40:12;6.13;;;5.10;;
1693;SDS011;844;47.058;15.472;2022-10-29T15:42:43;6.43;;;5.90;;
1693;SDS011;844;47.058;15.472;2022-10-29T15:45:25;6.70;;;6.10;;
1693;SDS011;844;47.058;15.472;2022-10-29T15:47:55;6.77;;;6.10;;
1693;SDS011;844;47.058;15.472;2022-10-29T15:50:28;6.37;;;5.77;;
1693;SDS011;844;47.058;15.472;2022-10-29T15:53:10;8.20;;;6.13;;
1693;SDS011;844;47.058;15.472;2022-10-29T15:55:42;6.37;;;5.77;;
1693;SDS011;844;47.058;15.472;2022-10-29T15:58:12;7.53;;;6.83;;
1693;SDS011;844;47.058;15.472;2022-10-29T16:00:43;7.50;;;5.87;;
1693;SDS011;844;47.058;15.472;2022-10-29T16:03:13;6.37;;;5.80;;
1693;SDS011;844;47.058;15.472;2022-10-29T16:05:44;7.60;;;5.83;;
1693;SDS011;844;47.058;15.472;2022-10-29T16:08:19;6.50;;;5.00;;
1693;SDS011;844;47.058;15.472;2022-10-29T16:10:52;7.30;;;6.50;;
1693;SDS011;844;47.058;15.472;2022-10-29T16:13:22;7.60;;;6.90;;